x

San Juan, Pr (41053) Wave Buoy

8:00pm - Fri 19th Sep 2014 All times are AST. -4 hours from GMT.

  • Sig Wave height 2.6ft
  • Peak Period 6s
  • Wind
    13mph, 16mph gusts
  • Sea Temp 85°f
  • Air Temp 84°f
  • Sea Pressure 1013.9mb
  • San Juan, Pr
  • San Juan, Pr

More Historic Weather Station data

Upgrade to MSW Pro to gain access to the past 30 days of data for over 8000 Wavebouys and Weather Stations around the globe.

Join Pro

Comparision Forecast

View Surf forecast
   
Fri 09/19 8:00pm 2.5ft 6s 13 16 mph 1013.9mb 85f 84f
7:00pm 3ft 8s 13 18 mph 1013.3mb 85f 85f
6:00pm 3ft 9s 16 20 mph 1012.9mb 85f 86f
5:00pm 3ft 6s 18 22 mph 1012.5mb 85f 86f
4:00pm 3ft 7s 20 25 mph 1011.9mb 85f 86f
3:00pm 3.5ft 7s 20 25 mph 1012mb 85f 86f
2:00pm 3ft 9s 18 22 mph 1012.3mb 85f 86f
1:00pm 3ft 7s 18 22 mph 1013mb 85f 85f
12:00pm 3ft 9s 16 20 mph 1013.7mb 85f 85f
11:00am 3ft 10s 16 20 mph 1014.3mb 85f 84f
10:00am 2.5ft 10s 13 16 mph 1013.8mb 85f 84f
9:00am 2.5ft 9s 7 9 mph 1013.8mb 85f 82f
8:00am 3ft 5s 9 11 mph 1013.4mb 85f 80f
7:00am 2.5ft 10s 16 20 mph 1013.1mb 85f 78f
6:00am 2.5ft 9s 18 20 mph 1013.4mb 85f 75f
5:00am 3ft 10s 11 13 mph 1014.6mb 85f 76f
4:00am 3ft 8s 11 16 mph 1014.9mb 85f 78f
3:00am 3.5ft 7s 16 20 mph 1013.2mb 85f 78f
2:00am 2.5ft 8s 7 11 mph 1013.5mb 85f 82f
1:00am 2.5ft 7s 7
mph
1013.4mb 85f 81f
12:00am 2.5ft 8s 4 9 mph 1013.9mb 85f 81f
Thu 09/18 11:00pm 2.5ft 8s 4 7 mph 1014.6mb 85f 81f
10:00pm 2.5ft 7s 4 9 mph 1014.3mb 85f 82f
9:00pm 2.5ft 7s 11 13 mph 1013.5mb 85f 85f
8:00pm 2.5ft 8s 11 13 mph 1013.5mb 85f 85f
7:00pm 3ft 8s 11 16 mph 1012.8mb 85f 84f
6:00pm 3ft 9s 11
mph
1012mb 85f 84f
5:00pm 3ft 8s 11 16 mph 1011.7mb 85f 84f
4:00pm 3.5ft 9s 13 18 mph 1011.6mb 85f 84f
3:00pm 3ft 8s 13 16 mph 1011.5mb 85f 84f
2:00pm 3ft 8s 11 13 mph 1012mb 85f 84f
1:00pm 3ft 8s 9 11 mph 1012.9mb 86f 84f
12:00pm 3ft 9s 9 11 mph 1014.1mb 85f 84f
11:00am 3.5ft 8s 9 11 mph 1014.6mb 85f 84f
10:00am 3.5ft 9s 4
mph
1014.4mb 85f 84f
9:00am 3.5ft 10s 2
mph
1014.3mb 85f 85f
8:00am 3ft 10s 2
mph
1014.3mb 84f 85f
7:00am 3ft 9s 2 4 mph 1013.8mb 84f 81f
6:00am 3.5ft 10s 4 7 mph 1013.4mb 84f 80f
5:00am 3ft 10s 4 7 mph 1012.8mb 84f 80f
4:00am 3.5ft 10s 4 7 mph 1012.7mb 84f 80f
3:00am 3.5ft 10s 4 7 mph 1013.1mb 84f 82f
2:00am 4ft 10s 4 7 mph 1013.5mb 84f 82f
1:00am 3.5ft 9s 11 16 mph 1013.8mb 84f 83f
12:00am 3.5ft 11s 9 11 mph 1014.2mb 84f 84f
Wed 09/17 11:00pm 4ft 11s 11 13 mph 1014.7mb 84f 84f
10:00pm 3.5ft 10s 11 16 mph 1014.7mb 84f 84f
9:00pm 4ft 11s 11 16 mph 1014mb 85f 84f
8:00pm 4ft 11s 13 16 mph 1012.9mb 84f 84f
7:00pm 4ft 11s 16 20 mph 1012.4mb 84f 84f
6:00pm 4.5ft 11s 16 18 mph 1012mb 84f 84f
5:00pm 4.5ft 11s 16 18 mph 1012.2mb 85f 84f
4:00pm 4ft 11s 13 16 mph 1012.3mb 85f 84f
3:00pm 4.5ft 12s 13 16 mph 1012.6mb 85f 84f
2:00pm 4ft 11s 13 16 mph 1013mb 85f 84f
1:00pm 4.5ft 11s 13 16 mph 1013.7mb 85f 84f
12:00pm 4ft 9s 11 16 mph 1014.7mb 85f 84f
11:00am 4.5ft 12s 13 18 mph 1015.1mb 84f 84f
10:00am 4.5ft 11s 11 16 mph 1015mb 84f 84f
9:00am 4ft 11s 9 11 mph 1015mb 84f 83f
8:00am 4ft 12s 9 13 mph 1014.4mb 84f 83f
7:00am 4ft 10s 4 7 mph 1013.8mb 84f 82f
6:00am 4ft 12s 4
mph
1013.5mb 84f 81f
5:00am 3.5ft 12s 4 7 mph 1013.5mb 84f 81f
4:00am 4ft 11s 7 9 mph 1013.2mb 85f 82f
3:00am 3.5ft 12s 9 11 mph 1013.1mb 85f 82f
2:00am 4ft 12s 7 9 mph 1013.9mb 84f 83f
1:00am 3.5ft 12s 7 9 mph 1014.6mb 84f 83f
12:00am 3.5ft 13s 9 11 mph 1014.4mb 84f 83f
Tue 09/16 11:00pm 3.5ft 11s 9 11 mph 1014.5mb 85f 83f
10:00pm 3ft 12s 11 16 mph 1014.4mb 85f 84f
9:00pm 3ft 12s 11 16 mph 1014.2mb 85f 84f
8:00pm 3ft 13s 13 18 mph 1013.2mb 85f 84f
7:00pm 3ft 13s 13 18 mph 1012.8mb 85f 84f
6:00pm 3ft 8s 13 16 mph 1012.6mb 85f 84f
5:00pm 3.5ft 10s 16 18 mph 1012.6mb 85f 84f
4:00pm 3.5ft 13s 16 18 mph 1012.6mb 85f 84f
3:00pm 3ft 12s 16 18 mph 1012.9mb 85f 84f
2:00pm 3.5ft 9s 16 18 mph 1013.4mb 85f 84f
1:00pm 3ft 12s 13 16 mph 1014.2mb 85f 84f
12:00pm 3ft 11s 13 16 mph 1015mb 85f 84f
11:00am 3ft 12s 11 13 mph 1015.8mb 85f 83f
10:00am 3ft 10s 9 11 mph 1015.9mb 85f 83f
9:00am 3.5ft 13s 7 9 mph 1015.8mb 84f 83f
8:00am 3ft 11s 2 4 mph 1015.1mb 84f 83f
7:00am 3ft 13s 4
mph
1014.6mb 84f 80f
6:00am 2.5ft 13s 4
mph
1014.2mb 84f 79f
5:00am 3ft 13s 4 7 mph 1014mb 85f 80f
4:00am 2.5ft 13s 2 4 mph 1014mb 84f 80f
3:00am 2.5ft 13s 4 7 mph 1014mb 85f 80f